createdAt,value
2023-01-17T00:00:12.815Z,99878.53
2023-01-17T00:05:34.090Z,99833.22
2023-01-17T00:10:49.649Z,99861.25
2023-01-17T00:15:49.127Z,99845.88
2023-01-17T00:21:05.737Z,99860.06
2023-01-17T00:26:07.414Z,99845.25
2023-01-17T00:31:07.112Z,99838.41
2023-01-17T00:36:09.234Z,99843.41
2023-01-17T00:41:09.553Z,99822.81
2023-01-17T00:46:27.259Z,99831.63
2023-01-17T00:51:50.509Z,99828.91
2023-01-17T00:57:10.895Z,99774.41
2023-01-17T01:02:34.821Z,99787.53
2023-01-17T01:08:18.565Z,99794.09
2023-01-17T01:13:37.020Z,99769.78
2023-01-17T01:18:58.327Z,99778.06
2023-01-17T01:24:52.248Z,99803.63
2023-01-17T01:30:14.061Z,99792.81
2023-01-17T01:35:17.082Z,99773.13
2023-01-17T01:40:29.232Z,99757.25
2023-01-17T01:45:29.889Z,99772.28
2023-01-17T01:50:30.715Z,99747.75
2023-01-17T01:55:41.234Z,99758.13
2023-01-17T02:00:42.417Z,99710.44
2023-01-17T02:05:44.481Z,99725.25
2023-01-17T02:10:56.145Z,99746.28
2023-01-17T02:16:28.744Z,99716.16
2023-01-17T02:21:43.841Z,99738.94
2023-01-17T02:26:43.604Z,99757.53
2023-01-17T02:31:54.996Z,99748.88
2023-01-17T02:37:09.469Z,99754.72
2023-01-17T02:42:18.518Z,99704.81
2023-01-17T02:47:39.835Z,99751.88
2023-01-17T02:52:57.541Z,99760.72
2023-01-17T02:58:28.252Z,99730.72
2023-01-17T03:03:56.009Z,99745.53
2023-01-17T03:09:01.225Z,99713.28
2023-01-17T03:14:04.626Z,99711.28
2023-01-17T03:19:04.171Z,99703.41
2023-01-17T03:24:05.751Z,99694.38
2023-01-17T03:29:07.105Z,99670.97
2023-01-17T03:34:18.337Z,99686.81
2023-01-17T03:39:17.480Z,99662.81
2023-01-17T03:44:18.140Z,99664.59
2023-01-17T03:49:20.152Z,99663.97
2023-01-17T03:54:18.737Z,99648.50
2023-01-17T03:59:20.029Z,99682.44
2023-01-17T04:04:22.048Z,99684.13
2023-01-17T04:09:22.133Z,99648.75
2023-01-17T04:14:25.221Z,99671.16
2023-01-17T04:19:37.670Z,99679.63
2023-01-17T04:24:39.802Z,99707.84
2023-01-17T04:29:40.172Z,99708.81
2023-01-17T04:34:39.758Z,99713.19
2023-01-17T04:39:52.038Z,99702.63
2023-01-17T04:44:56.438Z,99702.06
2023-01-17T04:49:57.993Z,99667.81
2023-01-17T04:54:59.083Z,99700.00
2023-01-17T04:59:58.386Z,99694.91
2023-01-17T05:04:59.138Z,99676.59
2023-01-17T05:10:01.216Z,99681.81
2023-01-17T05:15:00.105Z,99667.75
2023-01-17T05:20:11.057Z,99690.38
2023-01-17T05:25:11.005Z,99683.84
2023-01-17T05:30:15.571Z,99710.13
2023-01-17T05:35:15.089Z,99753.19
2023-01-17T05:40:19.458Z,99769.97
2023-01-17T05:45:20.905Z,99771.66
2023-01-17T05:50:27.914Z,99758.22
2023-01-17T05:55:32.418Z,99788.81
2023-01-17T06:00:32.876Z,99759.22
2023-01-17T06:05:31.235Z,99749.13
2023-01-17T06:10:34.539Z,99762.53
2023-01-17T06:15:35.520Z,99767.59
2023-01-17T06:20:35.950Z,99784.53
2023-01-17T06:25:46.395Z,99758.34
2023-01-17T06:30:45.004Z,99765.53
2023-01-17T06:35:59.282Z,99763.34
2023-01-17T06:41:47.784Z,99737.16
2023-01-17T06:46:28.831Z,99771.72
2023-01-17T06:51:32.461Z,99779.53
2023-01-17T06:56:36.472Z,99778.72
2023-01-17T07:01:41.918Z,99783.94
2023-01-17T07:06:54.066Z,99779.91
2023-01-17T07:18:14.837Z,99783.84
2023-01-17T07:23:13.391Z,99769.91
2023-01-17T07:29:01.775Z,99804.31
2023-01-17T07:33:39.499Z,99795.41
2023-01-17T07:38:38.546Z,99784.06
2023-01-17T07:43:47.543Z,99798.25
2023-01-17T07:49:09.576Z,99767.56
2023-01-17T07:54:11.522Z,99763.97
2023-01-17T07:59:17.105Z,99773.09
2023-01-17T08:04:17.318Z,99797.25
2023-01-17T08:09:34.441Z,99779.13
2023-01-17T08:14:33.049Z,99804.47
2023-01-17T08:19:38.310Z,99779.00
2023-01-17T08:25:07.623Z,99784.31
2023-01-17T08:30:35.203Z,99794.84
2023-01-17T08:35:50.325Z,99791.81
2023-01-17T08:41:13.443Z,99783.50
2023-01-17T08:46:17.697Z,99785.19
2023-01-17T08:57:09.224Z,99778.75
2023-01-17T09:02:29.795Z,99790.03
2023-01-17T09:07:30.557Z,99777.72
2023-01-17T09:12:33.602Z,99774.06
2023-01-17T09:17:32.014Z,99744.81
2023-01-17T09:22:41.954Z,99751.00
2023-01-17T09:28:15.766Z,99758.16
2023-01-17T09:33:34.792Z,99760.34
2023-01-17T09:38:52.909Z,99732.16
2023-01-17T09:44:06.819Z,99743.81
2023-01-17T09:49:24.940Z,99743.97
2023-01-17T09:54:45.621Z,99727.19
2023-01-17T10:00:03.329Z,99733.22
2023-01-17T10:05:37.681Z,99728.47
2023-01-17T10:10:49.202Z,99687.09
2023-01-17T10:15:49.512Z,99728.75
2023-01-17T10:20:56.675Z,99708.59
2023-01-17T10:26:10.536Z,99725.72
2023-01-17T10:31:36.445Z,99728.50
2023-01-17T10:36:38.342Z,99703.69
2023-01-17T10:41:44.220Z,99715.25
2023-01-17T10:46:46.059Z,99719.66
2023-01-17T10:52:06.473Z,99682.16
2023-01-17T10:57:29.086Z,99701.47
2023-01-17T11:02:47.229Z,99720.94
2023-01-17T11:09:05.863Z,99670.72
2023-01-17T11:14:25.914Z,99705.72
2023-01-17T11:19:36.445Z,99698.28
2023-01-17T11:25:21.111Z,99699.56
2023-01-17T11:31:00.541Z,99694.84
2023-01-17T11:35:59.471Z,99688.22
2023-01-17T11:41:18.400Z,99682.03
2023-01-17T11:46:21.103Z,99645.34
2023-01-17T11:52:03.571Z,99662.53
2023-01-17T11:57:02.476Z,99656.94
2023-01-17T12:02:48.379Z,99688.09
2023-01-17T12:08:22.256Z,99683.63
2023-01-17T12:14:07.068Z,99694.06
2023-01-17T12:19:47.082Z,99684.78
2023-01-17T12:26:49.317Z,99660.31
2023-01-17T12:31:43.343Z,99687.75
2023-01-17T12:36:56.020Z,99673.44
2023-01-17T12:41:58.032Z,99672.06
2023-01-17T12:47:04.309Z,99635.75
2023-01-17T12:52:20.635Z,99642.50
2023-01-17T12:57:37.865Z,99650.00
2023-01-17T13:02:44.328Z,99636.66
2023-01-17T13:08:06.356Z,99662.88
2023-01-17T13:13:33.307Z,99674.78
2023-01-17T13:18:49.008Z,99664.56
2023-01-17T13:24:23.991Z,99687.03
2023-01-17T13:30:01.043Z,99655.41
2023-01-17T13:35:43.746Z,99703.94
2023-01-17T13:40:54.614Z,99670.44
2023-01-17T13:46:18.600Z,99699.13
2023-01-17T13:51:23.562Z,99702.03
2023-01-17T13:57:00.622Z,99677.03
2023-01-17T14:02:02.540Z,99667.34
2023-01-17T14:07:20.782Z,99677.75
2023-01-17T14:12:40.606Z,99659.53
2023-01-17T14:18:15.604Z,99665.16
2023-01-17T14:30:22.451Z,99699.97
2023-01-17T14:35:43.324Z,99681.84
2023-01-17T14:40:58.611Z,99676.69
2023-01-17T14:46:15.939Z,99688.84
2023-01-17T14:51:25.740Z,99684.50
2023-01-17T14:56:29.939Z,99686.84
2023-01-17T15:02:07.539Z,99692.66
2023-01-17T15:07:33.759Z,99695.28
2023-01-17T15:12:39.604Z,99678.19
2023-01-17T15:17:42.030Z,99678.00
2023-01-17T15:22:55.453Z,99673.47
2023-01-17T15:27:59.036Z,99675.66
2023-01-17T15:45:19.832Z,99668.69
2023-01-17T15:50:31.094Z,99690.03
2023-01-17T15:56:02.930Z,99684.88
2023-01-17T16:01:36.688Z,99684.56
2023-01-17T16:06:45.748Z,99683.94
2023-01-17T16:11:56.863Z,99660.50
2023-01-17T16:17:03.874Z,99661.66
2023-01-17T16:22:21.700Z,99675.16
2023-01-17T16:27:30.618Z,99668.38
2023-01-17T16:32:29.821Z,99687.03
2023-01-17T16:37:28.740Z,99697.44
2023-01-17T16:42:28.674Z,99683.66
2023-01-17T16:47:27.642Z,99689.75
2023-01-17T16:52:28.189Z,99707.47
2023-01-17T16:57:30.402Z,99714.09
2023-01-17T17:02:31.489Z,99693.63
2023-01-17T17:07:34.157Z,99709.72
2023-01-17T17:12:36.188Z,99696.47
2023-01-17T17:17:40.317Z,99713.00
2023-01-17T17:22:39.373Z,99727.88
2023-01-17T17:27:43.574Z,99716.41
2023-01-17T17:32:45.703Z,99723.28
2023-01-17T17:37:44.874Z,99721.03
2023-01-17T17:42:44.110Z,99716.41
2023-01-17T17:47:46.047Z,99680.38
2023-01-17T17:52:46.637Z,99671.88
2023-01-17T17:57:47.924Z,99669.25
2023-01-17T18:02:48.508Z,99655.69
2023-01-17T18:13:31.686Z,99649.59
2023-01-17T18:18:31.492Z,99627.03
2023-01-17T18:23:34.225Z,99630.09
2023-01-17T18:28:34.716Z,99634.47
2023-01-17T18:33:40.962Z,99608.31
2023-01-17T18:38:46.750Z,99601.13
2023-01-17T18:43:58.750Z,99596.25
2023-01-17T18:49:00.272Z,99610.28
2023-01-17T18:54:03.852Z,99572.31
2023-01-17T18:59:06.655Z,99585.31
2023-01-17T19:04:06.289Z,99563.94
2023-01-17T19:09:31.771Z,99557.91
2023-01-17T19:14:47.776Z,99552.44
2023-01-17T19:19:53.365Z,99574.78
2023-01-17T19:25:01.951Z,99549.63
2023-01-17T19:30:00.164Z,99563.16
2023-01-17T19:35:02.645Z,99551.03
2023-01-17T19:40:05.855Z,99577.69
2023-01-17T19:45:13.608Z,99583.72
2023-01-17T19:50:19.438Z,99586.56
2023-01-17T19:55:26.203Z,99584.97
2023-01-17T20:00:30.125Z,99554.59
2023-01-17T20:05:33.762Z,99571.34
2023-01-17T20:10:32.645Z,99556.00
2023-01-17T20:15:43.016Z,99538.19
2023-01-17T20:20:57.081Z,99558.53
2023-01-17T20:26:01.813Z,99537.59
2023-01-17T20:31:11.285Z,99533.94
2023-01-17T20:36:11.484Z,99529.19
2023-01-17T20:41:36.954Z,99560.66
2023-01-17T20:46:40.648Z,99560.84
2023-01-17T20:51:45.370Z,99572.06
2023-01-17T20:56:47.627Z,99567.13
2023-01-17T21:01:46.739Z,99523.84
2023-01-17T21:06:51.792Z,99540.75
2023-01-17T21:11:54.683Z,99538.03
2023-01-17T21:16:53.407Z,99532.03
2023-01-17T21:21:59.539Z,99537.31
2023-01-17T21:27:03.040Z,99509.41
2023-01-17T21:32:07.946Z,99503.41
2023-01-17T21:37:06.524Z,99523.25
2023-01-17T21:42:04.822Z,99504.81
2023-01-17T21:47:03.590Z,99492.72
2023-01-17T21:52:01.943Z,99477.63
2023-01-17T21:57:19.567Z,99506.34
2023-01-17T22:02:17.460Z,99517.19
2023-01-17T22:07:19.935Z,99509.31
2023-01-17T22:12:19.403Z,99486.84
2023-01-17T22:17:26.753Z,99487.44
2023-01-17T22:22:27.915Z,99484.28
2023-01-17T22:27:29.476Z,99461.38
2023-01-17T22:32:32.055Z,99468.41
2023-01-17T22:37:34.872Z,99458.78
2023-01-17T22:42:36.627Z,99462.59
2023-01-17T22:47:36.515Z,99466.97
2023-01-17T22:52:35.953Z,99456.91
2023-01-17T22:57:36.873Z,99439.91
2023-01-17T23:02:38.262Z,99431.25
2023-01-17T23:07:48.267Z,99424.06
2023-01-17T23:12:56.394Z,99395.75
2023-01-17T23:18:15.968Z,99400.88
2023-01-17T23:23:16.759Z,99415.09
2023-01-17T23:28:23.734Z,99418.47
2023-01-17T23:33:23.138Z,99418.03
2023-01-17T23:38:31.992Z,99428.19
2023-01-17T23:43:32.984Z,99413.13
2023-01-17T23:48:37.796Z,99411.31
2023-01-17T23:53:39.034Z,99430.28
2023-01-17T23:58:39.843Z,99440.84
